Airfield :
LOGIN :

Register | Disclaimer

   EN    FR    IT 

 










Legend :    VFR   Marginal VFR   IFR   Intensive IFR   Very Intensive IFR
Visi :
Ceiling :
>= 8 km
>= 3000ft
5 to 8 km
1000 to 3000 ft
1500m to 5 km
500 to 1000 ft
800 to 1500m
200 to 500 ft
< 800m
< 200 ft
Symbols :   Thunderstorms  Fog  Heavy snow  Heavy precipitations  Wind > 20 kt
SIGMETs :     Misc.  Thunderstorms  Icing  Turbulence  Mountain Waves  Volcanic Ashes







- Airport Elevation : 102 ft
- IATA code : KEL


EDHK - Holtenau

CURRENT METAR :
  • 231420Z 28012KT 9999 FEW037 SCT065TCU 22/14 Q1013

EXPIRED METARs :
  • 231350Z 22005KT 180V290 9999 VCTS SCT038CB BKN046 21/13 Q1013 RETSRA
  • 231320Z 27009KT 9999 VCTS -RA SCT061CB BKN069 22/11 Q1012
  • 231250Z 24006KT 210V270 CAVOK 22/11 Q1013
  • 231220Z 25006KT 190V320 CAVOK 22/09 Q1013

TAF TAF EDHK
Valid from the 23 at 15:00 until the 23 at 18:00 UTC


231400Z 2315/2318 29010KT CAVOK
TEMPO 2315/2316 28015G30KT SHRA BKN030CB
TEMPO 2316/2318 29015G25KT
No reported NOTAMs for that airfield.
1 SIGMET reported for the Bremen FIR (EDWW) :
 
Squall lined thunderstorms and hail
EDWW SIGMET 1 VALID 231318/231600 EDZH
EDWW BREMEN FIR SQL TSGR FCST WI N5447 E00944 - N5439 E01039 - N5317 E01028 - N5324 E00940 - N5447 E00944 TOP FL300 MOV E NC=



MET'MAP, your aeronautical weather chart ! - Copyright ORBIFLY December 2007 - Disclaimer

ORBIFLY MET'MAP TEAM :

Programming & Development : Alexandra Zaïnal
Concept & Development : Baudouin d'Aumeries
Co-Development & Prog : Marc-Olivier Méhu
Technical & hardware support : Manuel Goepfert

Contact : metmap@orbifly.com




SOURCES & CREDITS :

   NOAA